createdAt,value
2018-12-05T00:00:38.743Z,22.00
2018-12-05T00:03:05.748Z,22.00
2018-12-05T00:05:32.813Z,22.00
2018-12-05T00:07:59.884Z,22.00
2018-12-05T00:10:26.914Z,22.00
2018-12-05T00:12:53.978Z,22.00
2018-12-05T00:15:20.976Z,22.00
2018-12-05T00:17:48.073Z,22.00
2018-12-05T00:20:15.220Z,22.00
2018-12-05T00:22:42.242Z,22.00
2018-12-05T00:25:09.277Z,22.00
2018-12-05T00:27:36.339Z,22.00
2018-12-05T00:30:04.266Z,22.00
2018-12-05T00:32:31.357Z,22.00
2018-12-05T00:34:58.450Z,22.00
2018-12-05T00:37:25.563Z,22.00
2018-12-05T00:39:52.555Z,22.00
2018-12-05T00:42:19.583Z,22.00
2018-12-05T00:44:46.626Z,22.00
2018-12-05T00:47:13.627Z,22.00
2018-12-05T00:49:40.711Z,22.00
2018-12-05T00:52:07.756Z,22.00
2018-12-05T00:54:34.753Z,22.00
2018-12-05T00:57:01.824Z,22.00
2018-12-05T00:59:28.895Z,21.90
2018-12-05T01:01:55.925Z,22.00
2018-12-05T01:04:23.011Z,22.00
2018-12-05T01:06:49.987Z,21.90
2018-12-05T01:09:16.990Z,22.00
2018-12-05T01:11:44.113Z,21.90
2018-12-05T01:14:11.190Z,21.90
2018-12-05T01:16:38.203Z,21.90
2018-12-05T01:19:05.265Z,22.00
2018-12-05T01:21:32.279Z,22.00
2018-12-05T01:23:59.295Z,21.90
2018-12-05T01:26:26.368Z,21.90
2018-12-05T01:28:53.453Z,21.90
2018-12-05T01:31:20.477Z,22.00
2018-12-05T01:33:47.562Z,22.00
2018-12-05T01:36:14.590Z,22.00
2018-12-05T01:38:41.603Z,21.90
2018-12-05T01:41:08.697Z,21.90
2018-12-05T01:43:50.494Z,21.90
2018-12-05T01:46:17.518Z,21.90
2018-12-05T01:48:44.565Z,21.90
2018-12-05T01:51:11.663Z,21.90
2018-12-05T01:53:38.664Z,22.00
2018-12-05T01:56:05.726Z,21.90
2018-12-05T01:58:32.813Z,22.00
2018-12-05T02:00:59.797Z,22.00
2018-12-05T02:03:26.870Z,21.90
2018-12-05T02:05:54.034Z,21.90
2018-12-05T02:08:21.050Z,21.90
2018-12-05T02:10:48.107Z,22.00
2018-12-05T02:13:15.148Z,21.90
2018-12-05T02:15:42.133Z,21.90
2018-12-05T02:18:09.197Z,22.00
2018-12-05T02:20:36.230Z,21.90
2018-12-05T02:23:03.248Z,21.90
2018-12-05T02:25:30.323Z,21.90
2018-12-05T02:27:57.327Z,21.90
2018-12-05T02:30:24.448Z,21.90
2018-12-05T02:32:51.516Z,22.00
2018-12-05T02:35:18.617Z,21.90
2018-12-05T02:37:45.621Z,21.90
2018-12-05T02:40:12.693Z,21.90
2018-12-05T02:42:39.809Z,21.90
2018-12-05T02:45:06.918Z,21.90
2018-12-05T02:47:34.014Z,21.90
2018-12-05T02:50:01.037Z,21.90
2018-12-05T02:52:28.129Z,21.90
2018-12-05T02:54:55.275Z,21.90
2018-12-05T02:57:22.280Z,21.90
2018-12-05T02:59:49.385Z,21.90
2018-12-05T03:02:16.391Z,21.90
2018-12-05T03:04:43.574Z,21.90
2018-12-05T03:07:10.640Z,21.90
2018-12-05T03:09:37.665Z,21.90
2018-12-05T03:12:04.678Z,21.90
2018-12-05T03:14:31.756Z,21.90
2018-12-05T03:16:58.763Z,22.00
2018-12-05T03:19:25.854Z,21.90
2018-12-05T03:21:53.014Z,21.90
2018-12-05T03:24:20.137Z,21.90
2018-12-05T03:26:47.157Z,21.90
2018-12-05T03:29:14.228Z,21.90
2018-12-05T03:31:41.298Z,21.90
2018-12-05T03:34:08.313Z,21.90
2018-12-05T03:36:35.415Z,21.90
2018-12-05T03:39:02.517Z,21.90
2018-12-05T03:41:29.569Z,21.90
2018-12-05T03:43:56.651Z,21.90
2018-12-05T03:46:23.780Z,21.90
2018-12-05T03:48:50.877Z,21.90
2018-12-05T03:51:17.987Z,21.90
2018-12-05T03:53:45.037Z,21.90
2018-12-05T03:56:12.044Z,21.90
2018-12-05T03:58:39.668Z,21.90
2018-12-05T04:01:07.503Z,21.90
2018-12-05T04:03:34.552Z,21.90
2018-12-05T04:06:01.588Z,21.90
2018-12-05T04:08:28.647Z,21.90
2018-12-05T04:10:55.790Z,21.90
2018-12-05T04:13:22.786Z,21.90
2018-12-05T04:15:49.876Z,21.90
2018-12-05T04:18:17.021Z,21.90
2018-12-05T04:20:44.082Z,21.90
2018-12-05T04:23:11.626Z,21.90
2018-12-05T04:25:39.128Z,21.90
2018-12-05T04:28:06.125Z,21.90
2018-12-05T04:30:33.690Z,21.90
2018-12-05T04:33:01.193Z,21.90
2018-12-05T04:35:28.204Z,21.90
2018-12-05T04:37:55.270Z,21.90
2018-12-05T04:40:22.405Z,21.90
2018-12-05T04:42:49.424Z,21.90
2018-12-05T04:45:16.615Z,21.90
2018-12-05T04:47:43.619Z,21.90
2018-12-05T04:50:10.664Z,21.90
2018-12-05T04:52:37.741Z,21.90
2018-12-05T04:55:04.747Z,21.90
2018-12-05T04:57:31.840Z,21.90
2018-12-05T04:59:58.899Z,21.90
2018-12-05T05:02:25.929Z,21.90
2018-12-05T05:04:52.996Z,21.90
2018-12-05T05:07:20.128Z,21.90
2018-12-05T05:09:47.199Z,21.90
2018-12-05T05:12:14.243Z,21.90
2018-12-05T05:14:41.379Z,21.80
2018-12-05T05:17:08.415Z,21.90
2018-12-05T05:19:35.495Z,21.90
2018-12-05T05:22:02.585Z,21.90
2018-12-05T05:24:29.680Z,21.90
2018-12-05T05:26:56.707Z,21.80
2018-12-05T05:29:23.777Z,21.90
2018-12-05T05:31:50.898Z,21.80
2018-12-05T05:34:17.967Z,21.80
2018-12-05T05:36:45.015Z,21.90
2018-12-05T05:39:12.005Z,21.80
2018-12-05T05:41:39.091Z,21.80
2018-12-05T05:44:06.127Z,22.10
2018-12-05T05:46:33.128Z,21.90
2018-12-05T05:49:00.245Z,21.90
2018-12-05T05:51:27.297Z,21.80
2018-12-05T05:53:54.290Z,21.80
2018-12-05T05:56:21.328Z,21.80
2018-12-05T05:58:48.340Z,21.90
2018-12-05T06:01:15.412Z,21.90
2018-12-05T06:03:42.442Z,21.90
2018-12-05T06:06:09.489Z,21.90
2018-12-05T06:08:36.516Z,21.90
2018-12-05T06:11:07.013Z,21.80
2018-12-05T06:13:34.499Z,21.90
2018-12-05T06:16:01.555Z,21.80
2018-12-05T06:18:28.556Z,21.90
2018-12-05T06:20:55.624Z,21.90
2018-12-05T06:23:22.620Z,21.90
2018-12-05T06:25:49.678Z,21.90
2018-12-05T06:28:16.682Z,21.90
2018-12-05T06:30:43.829Z,21.90
2018-12-05T06:33:10.898Z,21.90
2018-12-05T06:35:37.908Z,22.00
2018-12-05T06:38:04.904Z,22.00
2018-12-05T06:40:31.949Z,22.10
2018-12-05T06:42:58.944Z,22.10
2018-12-05T06:45:26.010Z,22.10
2018-12-05T06:47:53.074Z,22.00
2018-12-05T06:50:20.110Z,21.90
2018-12-05T06:52:47.304Z,21.90
2018-12-05T06:55:14.445Z,21.90
2018-12-05T06:57:41.554Z,21.80
2018-12-05T07:00:08.674Z,21.80
2018-12-05T07:02:35.693Z,21.80
2018-12-05T07:05:02.821Z,21.80
2018-12-05T07:07:29.956Z,21.80
2018-12-05T07:09:56.965Z,21.90
2018-12-05T07:12:23.994Z,21.80
2018-12-05T07:14:51.108Z,21.80
2018-12-05T07:17:18.169Z,21.80
2018-12-05T07:19:45.212Z,21.70
2018-12-05T07:22:12.352Z,21.70
2018-12-05T07:24:39.381Z,21.70
2018-12-05T07:27:06.392Z,21.60
2018-12-05T07:29:33.470Z,21.60
2018-12-05T07:32:00.502Z,21.60
2018-12-05T07:34:27.504Z,21.60
2018-12-05T07:36:54.548Z,21.60
2018-12-05T07:39:21.584Z,21.60
2018-12-05T07:41:48.622Z,21.60
2018-12-05T07:44:15.760Z,21.60
2018-12-05T07:46:42.792Z,21.60
2018-12-05T07:49:09.868Z,21.60
2018-12-05T07:51:36.939Z,21.60
2018-12-05T07:54:03.952Z,21.60
2018-12-05T07:56:31.000Z,21.60
2018-12-05T07:58:58.164Z,21.60
2018-12-05T08:01:25.156Z,21.50
2018-12-05T08:03:52.254Z,21.50
2018-12-05T08:06:19.302Z,21.50
2018-12-05T08:08:46.366Z,21.50
2018-12-05T08:11:13.412Z,21.60
2018-12-05T08:13:40.563Z,21.60
2018-12-05T08:16:07.584Z,21.60
2018-12-05T08:18:34.598Z,21.60
2018-12-05T08:21:01.658Z,21.70
2018-12-05T08:23:28.726Z,21.70
2018-12-05T08:25:55.788Z,21.70
2018-12-05T08:28:23.048Z,21.70
2018-12-05T08:30:50.076Z,21.80
2018-12-05T08:33:17.144Z,21.80
2018-12-05T08:35:44.492Z,21.80
2018-12-05T08:38:11.536Z,21.80
2018-12-05T08:40:38.804Z,21.80
2018-12-05T08:43:05.849Z,21.80
2018-12-05T08:45:32.887Z,21.80
2018-12-05T08:47:59.934Z,21.80
2018-12-05T08:50:26.939Z,21.80
2018-12-05T08:52:54.009Z,21.80
2018-12-05T08:55:21.039Z,21.80
2018-12-05T08:57:48.111Z,21.80
2018-12-05T09:00:15.184Z,21.80
2018-12-05T09:02:42.218Z,21.80
2018-12-05T09:05:09.273Z,21.80
2018-12-05T09:07:36.344Z,21.80
2018-12-05T09:10:03.615Z,21.80
2018-12-05T09:12:30.640Z,21.80
2018-12-05T09:14:57.696Z,21.80
2018-12-05T09:17:24.747Z,21.80
2018-12-05T09:19:51.745Z,21.80
2018-12-05T09:22:18.880Z,21.80
2018-12-05T09:24:45.964Z,21.80
2018-12-05T09:27:13.038Z,21.80
2018-12-05T09:29:40.128Z,21.80
2018-12-05T09:32:07.211Z,21.80
2018-12-05T09:34:34.339Z,21.80
2018-12-05T09:37:01.448Z,21.80
2018-12-05T09:39:28.558Z,21.80
2018-12-05T09:41:55.612Z,21.80
2018-12-05T09:44:22.615Z,21.80
2018-12-05T09:46:49.693Z,21.80
2018-12-05T09:49:16.761Z,21.80
2018-12-05T09:51:43.890Z,21.80
2018-12-05T09:54:10.906Z,21.80
2018-12-05T09:56:37.952Z,21.90
2018-12-05T09:59:04.947Z,21.80
2018-12-05T10:01:31.962Z,21.80
2018-12-05T10:03:59.117Z,21.80
2018-12-05T10:06:26.188Z,21.80
2018-12-05T10:08:53.207Z,21.80
2018-12-05T10:11:20.367Z,21.80
2018-12-05T10:13:47.413Z,21.80
2018-12-05T10:16:14.423Z,21.80
2018-12-05T10:18:41.494Z,21.80
2018-12-05T10:21:08.564Z,21.80
2018-12-05T10:23:35.618Z,21.90
2018-12-05T10:26:02.858Z,21.80
2018-12-05T10:28:29.873Z,21.80
2018-12-05T10:30:56.876Z,21.90
2018-12-05T10:33:23.934Z,21.90
2018-12-05T10:35:51.059Z,21.90
2018-12-05T10:38:18.196Z,21.80
2018-12-05T10:40:45.334Z,21.90
2018-12-05T10:43:12.384Z,21.80
2018-12-05T10:45:39.423Z,21.80
2018-12-05T10:48:06.492Z,21.80
2018-12-05T10:50:33.541Z,21.80
2018-12-05T10:53:00.565Z,21.80
2018-12-05T10:55:27.556Z,21.90
2018-12-05T10:57:54.617Z,21.80
2018-12-05T11:00:23.627Z,21.80
2018-12-05T11:02:56.501Z,21.80
2018-12-05T11:05:26.289Z,21.80
2018-12-05T11:07:59.159Z,21.90
2018-12-05T11:13:30.942Z,21.90
2018-12-05T11:16:02.825Z,22.00
2018-12-05T11:18:35.745Z,22.00
2018-12-05T11:21:08.439Z,21.90
2018-12-05T11:26:38.718Z,21.90
2018-12-05T11:29:05.734Z,21.90
2018-12-05T11:31:32.901Z,21.90
2018-12-05T11:33:59.975Z,21.90
2018-12-05T11:36:28.545Z,21.90
2018-12-05T11:38:55.649Z,21.90
2018-12-05T11:41:22.932Z,21.90
2018-12-05T11:43:49.949Z,22.00
2018-12-05T11:46:17.001Z,22.00
2018-12-05T11:48:44.171Z,22.00
2018-12-05T11:51:11.401Z,22.00
2018-12-05T11:53:38.426Z,22.00
2018-12-05T11:56:05.416Z,21.90
2018-12-05T11:58:32.471Z,22.00
2018-12-05T12:00:59.498Z,22.00
2018-12-05T12:03:26.557Z,22.00
2018-12-05T12:05:53.687Z,22.00
2018-12-05T12:08:20.720Z,22.00
2018-12-05T12:10:47.737Z,22.00
2018-12-05T12:13:14.866Z,22.00
2018-12-05T12:15:41.914Z,22.00
2018-12-05T12:18:08.934Z,22.00
2018-12-05T12:20:36.100Z,22.00
2018-12-05T12:23:03.100Z,22.00
2018-12-05T12:25:31.069Z,21.90
2018-12-05T12:27:58.119Z,21.90
2018-12-05T12:30:25.187Z,21.90
2018-12-05T12:32:52.343Z,21.90
2018-12-05T12:35:19.402Z,22.00
2018-12-05T12:37:46.420Z,22.20
2018-12-05T12:40:13.516Z,22.20
2018-12-05T12:42:40.526Z,22.30
2018-12-05T12:45:07.613Z,22.30
2018-12-05T12:47:34.650Z,22.30
2018-12-05T12:50:01.666Z,22.30
2018-12-05T12:52:28.821Z,22.30
2018-12-05T12:54:55.874Z,22.40
2018-12-05T12:57:22.912Z,22.40
2018-12-05T12:59:49.983Z,22.40
2018-12-05T13:02:16.999Z,22.30
2018-12-05T13:04:44.006Z,22.40
2018-12-05T13:07:11.104Z,22.30
2018-12-05T13:09:38.170Z,22.30
2018-12-05T13:12:05.216Z,22.30
2018-12-05T13:14:32.284Z,22.30
2018-12-05T13:16:59.302Z,22.30
2018-12-05T13:19:26.354Z,22.30
2018-12-05T13:21:53.442Z,22.30
2018-12-05T13:24:20.554Z,22.30
2018-12-05T13:26:47.588Z,22.30
2018-12-05T13:29:14.748Z,22.30
2018-12-05T13:31:41.798Z,22.20
2018-12-05T13:34:08.958Z,22.20
2018-12-05T13:36:36.006Z,22.10
2018-12-05T13:39:04.097Z,22.40
2018-12-05T13:41:31.106Z,22.70
2018-12-05T13:43:58.233Z,22.80
2018-12-05T13:46:29.865Z,22.60
2018-12-05T13:48:54.329Z,22.40
2018-12-05T13:51:21.398Z,22.30
2018-12-05T13:53:48.481Z,22.30
2018-12-05T13:56:15.502Z,22.20
2018-12-05T13:58:42.601Z,22.20
2018-12-05T14:01:09.607Z,22.10
2018-12-05T14:03:36.614Z,22.20
2018-12-05T14:06:03.723Z,22.20
2018-12-05T14:08:30.778Z,22.20
2018-12-05T14:10:57.811Z,22.20
2018-12-05T14:13:24.922Z,22.10
2018-12-05T14:15:51.937Z,22.10
2018-12-05T14:18:18.983Z,22.10
2018-12-05T14:20:45.995Z,22.10
2018-12-05T14:23:13.044Z,22.10
2018-12-05T14:25:40.195Z,22.10
2018-12-05T14:28:07.266Z,22.10
2018-12-05T14:30:34.324Z,22.10
2018-12-05T14:33:01.339Z,22.10
2018-12-05T14:35:28.400Z,22.10
2018-12-05T14:37:55.467Z,22.10
2018-12-05T14:40:22.483Z,22.00
2018-12-05T14:42:49.669Z,22.00
2018-12-05T14:45:16.703Z,22.10
2018-12-05T14:47:43.793Z,22.00
2018-12-05T14:50:10.812Z,22.00
2018-12-05T14:52:37.931Z,22.00
2018-12-05T14:55:05.000Z,22.10
2018-12-05T14:57:32.008Z,22.10
2018-12-05T14:59:59.139Z,22.00
2018-12-05T15:02:26.248Z,22.00
2018-12-05T15:04:53.287Z,22.00
2018-12-05T15:07:20.307Z,22.10
2018-12-05T15:09:47.380Z,22.10
2018-12-05T15:12:14.380Z,22.00
2018-12-05T15:14:41.487Z,22.00
2018-12-05T15:17:08.515Z,22.00
2018-12-05T15:19:35.549Z,22.00
2018-12-05T15:22:02.624Z,22.00
2018-12-05T15:24:29.652Z,22.00
2018-12-05T15:26:56.738Z,22.10
2018-12-05T15:29:25.688Z,22.10
2018-12-05T15:31:52.853Z,22.20
2018-12-05T15:34:19.918Z,22.20
2018-12-05T15:36:46.996Z,22.20
2018-12-05T15:39:14.096Z,22.30
2018-12-05T15:41:41.130Z,22.30
2018-12-05T15:44:08.293Z,22.30
2018-12-05T15:46:35.440Z,22.30
2018-12-05T15:49:02.466Z,22.30
2018-12-05T15:51:29.626Z,22.30
2018-12-05T15:53:57.198Z,22.30
2018-12-05T15:56:24.228Z,22.30
2018-12-05T15:58:51.370Z,22.40
2018-12-05T16:01:18.428Z,22.40
2018-12-05T16:03:45.476Z,22.40
2018-12-05T16:06:12.553Z,22.40
2018-12-05T16:08:39.588Z,22.40
2018-12-05T16:11:07.818Z,22.40
2018-12-05T16:13:34.929Z,22.50
2018-12-05T16:16:01.949Z,22.50
2018-12-05T16:18:28.999Z,22.60
2018-12-05T16:20:56.037Z,22.70
2018-12-05T16:23:23.063Z,22.70
2018-12-05T16:25:50.150Z,22.80
2018-12-05T16:28:17.264Z,22.80
2018-12-05T16:30:44.268Z,22.80
2018-12-05T16:33:11.426Z,22.80
2018-12-05T16:35:38.529Z,22.80
2018-12-05T16:38:05.588Z,22.80
2018-12-05T16:40:32.657Z,22.90
2018-12-05T16:42:59.888Z,22.90
2018-12-05T16:45:27.049Z,23.10
2018-12-05T16:47:54.855Z,23.00
2018-12-05T16:50:21.895Z,23.10
2018-12-05T16:52:49.025Z,23.10
2018-12-05T16:55:16.102Z,23.10
2018-12-05T16:57:43.113Z,23.20
2018-12-05T17:00:10.929Z,23.30
2018-12-05T17:02:38.003Z,23.20
2018-12-05T17:05:05.018Z,23.10
2018-12-05T17:07:32.166Z,23.20
2018-12-05T17:09:59.287Z,23.30
2018-12-05T17:12:26.281Z,23.20
2018-12-05T17:14:53.471Z,23.40
2018-12-05T17:17:20.464Z,23.60
2018-12-05T17:19:47.657Z,23.40
2018-12-05T17:22:14.690Z,23.20
2018-12-05T17:24:41.749Z,23.10
2018-12-05T17:27:08.912Z,23.00
2018-12-05T17:29:35.939Z,23.00
2018-12-05T17:32:02.938Z,22.90
2018-12-05T17:34:30.031Z,22.80
2018-12-05T17:36:57.122Z,22.80
2018-12-05T17:39:24.318Z,22.80
2018-12-05T17:41:51.805Z,22.80
2018-12-05T17:44:18.850Z,22.80
2018-12-05T17:46:45.887Z,22.90
2018-12-05T17:49:13.062Z,22.80
2018-12-05T17:51:40.074Z,22.80
2018-12-05T17:54:14.523Z,22.70
2018-12-05T17:56:36.299Z,22.70
2018-12-05T17:59:03.425Z,22.60
2018-12-05T18:01:30.646Z,22.60
2018-12-05T18:03:57.678Z,22.50
2018-12-05T18:06:24.725Z,22.50
2018-12-05T18:08:51.756Z,22.50
2018-12-05T18:11:18.836Z,22.40
2018-12-05T18:13:45.864Z,22.50
2018-12-05T18:16:12.866Z,22.40
2018-12-05T18:18:39.908Z,22.40
2018-12-05T18:21:06.938Z,22.40
2018-12-05T18:23:33.957Z,22.40
2018-12-05T18:26:01.010Z,22.40
2018-12-05T18:28:28.017Z,22.40
2018-12-05T18:30:55.048Z,22.50
2018-12-05T18:33:22.150Z,22.50
2018-12-05T18:35:49.168Z,22.50
2018-12-05T18:38:16.243Z,22.50
2018-12-05T18:40:43.720Z,22.60
2018-12-05T18:43:11.225Z,22.50
2018-12-05T18:45:38.223Z,22.60
2018-12-05T18:48:05.226Z,22.60
2018-12-05T18:50:32.401Z,22.60
2018-12-05T18:52:59.563Z,22.60
2018-12-05T18:55:26.605Z,22.50
2018-12-05T18:57:53.673Z,22.50
2018-12-05T19:00:22.738Z,22.50
2018-12-05T19:02:50.554Z,22.50
2018-12-05T19:05:20.530Z,22.50
2018-12-05T19:07:50.849Z,22.60
2018-12-05T19:10:18.032Z,22.60
2018-12-05T19:12:45.047Z,22.60
2018-12-05T19:15:12.186Z,22.70
2018-12-05T19:17:39.239Z,22.70
2018-12-05T19:20:06.353Z,22.70
2018-12-05T19:22:33.437Z,22.70
2018-12-05T19:25:00.583Z,22.70
2018-12-05T19:27:27.609Z,22.70
2018-12-05T19:29:54.642Z,22.70
2018-12-05T19:32:21.703Z,22.70
2018-12-05T19:34:49.976Z,22.70
2018-12-05T19:37:17.022Z,22.70
2018-12-05T19:39:44.091Z,22.70
2018-12-05T19:42:11.096Z,22.70
2018-12-05T19:44:38.195Z,22.70
2018-12-05T19:47:05.272Z,22.70
2018-12-05T19:49:32.313Z,22.70
2018-12-05T19:51:59.433Z,22.70
2018-12-05T19:54:26.454Z,22.70
2018-12-05T19:56:53.555Z,22.70
2018-12-05T19:59:20.633Z,22.60
2018-12-05T20:01:47.726Z,22.60
2018-12-05T20:04:14.747Z,22.60
2018-12-05T20:06:41.812Z,22.70
2018-12-05T20:09:08.893Z,22.60
2018-12-05T20:11:35.905Z,22.60
2018-12-05T20:14:02.936Z,22.60
2018-12-05T20:16:30.011Z,22.60
2018-12-05T20:18:57.046Z,22.60
2018-12-05T20:21:24.095Z,22.50
2018-12-05T20:23:51.154Z,22.50
2018-12-05T20:26:18.164Z,22.50
2018-12-05T20:28:45.246Z,22.50
2018-12-05T20:31:12.269Z,22.50
2018-12-05T20:33:39.316Z,22.50
2018-12-05T20:36:06.340Z,22.50
2018-12-05T20:38:33.403Z,22.50
2018-12-05T20:41:00.438Z,22.40
2018-12-05T20:43:27.444Z,22.40
2018-12-05T20:45:54.520Z,22.50
2018-12-05T20:48:21.574Z,22.40
2018-12-05T20:50:48.572Z,22.40
2018-12-05T20:53:15.628Z,22.40
2018-12-05T20:55:42.736Z,22.40
2018-12-05T20:58:09.840Z,22.40
2018-12-05T21:00:36.855Z,22.40
2018-12-05T21:03:03.897Z,22.40
2018-12-05T21:05:30.920Z,22.40
2018-12-05T21:07:58.247Z,22.40
2018-12-05T21:10:25.336Z,22.40
2018-12-05T21:12:52.388Z,22.30
2018-12-05T21:15:19.463Z,22.30
2018-12-05T21:17:46.520Z,22.30
2018-12-05T21:20:13.562Z,22.30
2018-12-05T21:22:46.959Z,22.30
2018-12-05T21:25:09.639Z,22.30
2018-12-05T21:27:36.728Z,22.30
2018-12-05T21:30:04.463Z,22.30
2018-12-05T21:32:31.567Z,22.30
2018-12-05T21:34:58.581Z,22.30
2018-12-05T21:37:25.628Z,22.30
2018-12-05T21:39:52.792Z,22.30
2018-12-05T21:42:20.768Z,22.30
2018-12-05T21:44:47.797Z,22.30
2018-12-05T21:47:14.889Z,22.30
2018-12-05T21:49:41.892Z,22.20
2018-12-05T21:52:08.900Z,22.20
2018-12-05T21:54:36.013Z,22.20
2018-12-05T21:57:03.060Z,22.20
2018-12-05T21:59:30.109Z,22.20
2018-12-05T22:01:57.135Z,22.20
2018-12-05T22:04:24.197Z,22.20
2018-12-05T22:06:51.267Z,22.20
2018-12-05T22:09:18.507Z,22.20
2018-12-05T22:11:45.519Z,22.20
2018-12-05T22:14:12.572Z,22.20
2018-12-05T22:16:39.566Z,22.20
2018-12-05T22:19:06.674Z,22.20
2018-12-05T22:21:33.826Z,22.20
2018-12-05T22:24:00.893Z,22.20
2018-12-05T22:26:28.054Z,22.20
2018-12-05T22:28:55.261Z,22.20
2018-12-05T22:31:22.315Z,22.20
2018-12-05T22:33:49.406Z,22.20
2018-12-05T22:36:18.665Z,22.20
2018-12-05T22:38:45.726Z,22.20
2018-12-05T22:41:12.753Z,22.20
2018-12-05T22:43:39.831Z,22.20
2018-12-05T22:46:06.852Z,22.20
2018-12-05T22:48:33.914Z,22.20
2018-12-05T22:51:00.939Z,22.20
2018-12-05T22:53:27.937Z,22.20
2018-12-05T22:55:55.059Z,22.20
2018-12-05T22:58:22.225Z,22.10
2018-12-05T23:00:49.636Z,22.20
2018-12-05T23:03:16.681Z,22.10
2018-12-05T23:05:43.755Z,22.20
2018-12-05T23:08:10.814Z,22.20
2018-12-05T23:10:38.095Z,22.20
2018-12-05T23:13:05.118Z,22.20
2018-12-05T23:15:32.477Z,22.20
2018-12-05T23:17:59.724Z,22.20
2018-12-05T23:20:26.893Z,22.20
2018-12-05T23:22:53.943Z,22.20
2018-12-05T23:25:21.048Z,22.20
2018-12-05T23:27:48.085Z,22.20
2018-12-05T23:30:15.159Z,22.20
2018-12-05T23:32:42.163Z,22.20
2018-12-05T23:35:09.256Z,22.20
2018-12-05T23:37:36.317Z,22.20
2018-12-05T23:40:03.942Z,22.20
2018-12-05T23:42:30.957Z,22.20
2018-12-05T23:44:58.084Z,22.20
2018-12-05T23:47:25.079Z,22.20
2018-12-05T23:49:52.161Z,22.20
2018-12-05T23:52:19.311Z,22.20
2018-12-05T23:54:46.319Z,22.20
2018-12-05T23:57:13.353Z,22.20
2018-12-05T23:59:40.414Z,22.20
